Time;durP1;ratioP1;P1;durP2;ratioP2;P2;SDS_P1;SDS_P2;PMS_P1;PMS_P2;Temp;Humidity;BMP_temperature;BMP_pressure;BME280_temperature;BME280_humidity;BME280_pressure;Samples;Min_cycle;Max_cycle;Signal;HPM_P1;HPM_P2
2021/04/24 00:00:30;;;;;;;7.50;3.33;;;;;;;5.72;58.00;101940.25;5069854;28;20201;-66
2021/04/24 00:02:56;;;;;;;5.77;3.33;;;;;;;5.68;58.21;101934.16;5071921;28;20613;-65
2021/04/24 00:05:24;;;;;;;5.07;2.93;;;;;;;5.66;58.30;101937.75;5068939;28;20232;-65
2021/04/24 00:07:52;;;;;;;6.50;2.80;;;;;;;5.62;58.83;101941.34;5066188;28;20216;-65
2021/04/24 00:10:20;;;;;;;6.37;3.17;;;;;;;5.58;58.43;101938.78;5071939;28;20285;-65
2021/04/24 00:12:46;;;;;;;7.07;2.97;;;;;;;5.53;58.52;101934.50;5057564;28;20229;-65
2021/04/24 00:15:14;;;;;;;7.20;3.50;;;;;;;5.48;59.01;101931.97;5068411;28;20208;-65
2021/04/24 00:17:40;;;;;;;8.30;2.83;;;;;;;5.46;59.05;101935.53;5062655;28;20208;-65
2021/04/24 00:20:08;;;;;;;7.23;3.17;;;;;;;5.43;59.11;101935.59;5058411;28;20205;-65
2021/04/24 00:22:34;;;;;;;7.40;3.03;;;;;;;5.39;59.06;101931.28;5068724;28;20278;-65
2021/04/24 00:25:01;;;;;;;6.20;2.77;;;;;;;5.36;59.14;101931.38;5064806;28;20295;-66
2021/04/24 00:27:28;;;;;;;4.37;2.40;;;;;;;5.32;59.22;101935.84;5069998;28;20207;-65
2021/04/24 00:29:54;;;;;;;4.73;3.00;;;;;;;5.27;59.64;101936.84;5062620;28;20209;-65
2021/04/24 00:32:19;;;;;;;5.90;2.23;;;;;;;5.21;60.06;101932.53;5068291;28;20276;-65
2021/04/24 00:34:46;;;;;;;4.67;2.77;;;;;;;5.16;59.92;101937.94;5058895;28;20295;-65
2021/04/24 00:37:12;;;;;;;6.50;2.67;;;;;;;5.10;60.49;101930.13;5069422;28;20201;-62
2021/04/24 00:39:38;;;;;;;8.73;3.03;;;;;;;5.08;60.52;101931.06;5062638;28;20661;-65
2021/04/24 00:42:05;;;;;;;6.93;3.10;;;;;;;5.05;60.34;101931.09;5064615;28;20213;-65
2021/04/24 00:44:32;;;;;;;7.57;3.20;;;;;;;5.04;60.45;101932.00;5063750;28;20295;-65
2021/04/24 00:46:58;;;;;;;6.13;3.00;;;;;;;5.03;60.88;101930.28;5063234;28;20250;-66
2021/04/24 00:49:24;;;;;;;5.77;2.70;;;;;;;5.00;61.38;101933.88;5057125;28;20206;-66
2021/04/24 00:51:50;;;;;;;7.00;2.93;;;;;;;4.99;61.20;101931.25;5064809;28;20205;-66
2021/04/24 00:54:16;;;;;;;7.17;2.70;;;;;;;4.97;60.97;101930.41;5062262;28;20279;-65
2021/04/24 00:56:43;;;;;;;5.57;3.00;;;;;;;4.94;61.47;101930.47;5060189;28;20201;-65
2021/04/24 00:59:09;;;;;;;4.07;2.83;;;;;;;4.92;61.67;101929.63;5057254;28;20674;-65
2021/04/24 01:01:36;;;;;;;7.13;3.07;;;;;;;4.88;61.96;101929.69;5059211;28;20200;-65
2021/04/24 01:04:02;;;;;;;9.60;3.30;;;;;;;4.85;61.44;101929.72;5057486;28;20233;-65
2021/04/24 01:06:28;;;;;;;11.00;3.50;;;;;;;4.83;62.13;101926.28;5061289;28;20225;-64
2021/04/24 01:08:54;;;;;;;7.30;3.10;;;;;;;4.80;61.82;101925.47;5061916;28;20220;-65
2021/04/24 01:11:20;;;;;;;8.10;3.60;;;;;;;4.77;62.32;101931.66;5056483;28;20221;-64
2021/04/24 01:13:46;;;;;;;8.77;3.37;;;;;;;4.74;61.80;101926.44;5056079;28;20293;-65
2021/04/24 01:16:12;;;;;;;6.00;3.30;;;;;;;4.72;62.33;101930.00;5057351;28;20288;-64
2021/04/24 01:18:39;;;;;;;7.87;3.27;;;;;;;4.69;63.05;101930.94;5057908;28;20205;-65
2021/04/24 01:21:06;;;;;;;6.93;3.63;;;;;;;4.67;62.60;101940.63;5057172;28;20280;-65
2021/04/24 01:23:34;;;;;;;5.97;3.67;;;;;;;4.65;62.64;101926.63;5057362;28;20226;-65
2021/04/24 01:26:01;;;;;;;5.93;3.50;;;;;;;4.63;63.04;101931.06;5063160;28;20331;-65
2021/04/24 01:28:27;;;;;;;6.87;3.60;;;;;;;4.60;63.29;101923.19;5068497;28;20578;-63
2021/04/24 01:30:53;;;;;;;9.50;4.00;;;;;;;4.58;63.42;101929.41;5062046;28;20209;-68
2021/04/24 01:33:19;;;;;;;8.20;3.67;;;;;;;4.57;63.13;101933.81;5064193;28;20590;-65
2021/04/24 01:35:45;;;;;;;8.47;3.90;;;;;;;4.54;63.26;101923.28;5068028;28;20670;-66
2021/04/24 01:38:12;;;;;;;7.43;3.77;;;;;;;4.52;63.45;101925.09;5061061;28;20208;-66
2021/04/24 01:40:39;;;;;;;8.23;3.63;;;;;;;4.51;63.63;101924.22;5053833;28;20223;-64
2021/04/24 01:43:06;;;;;;;6.77;3.80;;;;;;;4.49;63.76;101930.41;5059970;28;20289;-66
2021/04/24 01:45:36;;;;;;;9.27;4.30;;;;;;;4.47;64.47;101927.84;5068181;28;20225;-66
2021/04/24 01:48:05;;;;;;;10.63;4.20;;;;;;;4.45;64.65;101934.03;5058688;28;20249;-66
2021/04/24 01:50:34;;;;;;;11.97;4.43;;;;;;;4.44;64.91;101929.66;5068747;28;20201;-66
2021/04/24 01:53:03;;;;;;;7.70;4.20;;;;;;;4.41;65.17;101924.41;5067206;28;20227;-66
2021/04/24 01:55:32;;;;;;;11.07;4.30;;;;;;;4.40;64.60;101925.31;5069625;28;20662;-66
2021/04/24 01:58:00;;;;;;;9.30;3.87;;;;;;;4.35;65.31;101919.25;5065568;28;20205;-65
2021/04/24 02:00:34;;;;;;;7.83;4.00;;;;;;;4.33;65.05;101923.66;5069571;28;20200;-66
2021/04/24 02:03:04;;;;;;;7.73;4.17;;;;;;;4.30;65.28;101915.84;5065320;28;20613;-64
2021/04/24 02:05:30;;;;;;;8.67;4.67;;;;;;;4.27;65.54;101921.16;5059293;28;20312;-65
2021/04/24 02:07:58;;;;;;;8.30;4.53;;;;;;;4.25;66.24;101925.59;5054571;28;20241;-63
2021/04/24 02:10:26;;;;;;;12.90;4.73;;;;;;;4.23;66.06;101916.81;5059223;28;20658;-65
2021/04/24 02:12:53;;;;;;;7.13;4.23;;;;;;;4.21;66.31;101914.22;5050329;28;20225;-65
2021/04/24 02:15:21;;;;;;;15.37;5.10;;;;;;;4.21;66.25;101902.78;5056115;28;20921;-64
2021/04/24 02:17:47;;;;;;;12.87;4.63;;;;;;;4.20;66.60;101907.19;5063164;28;20241;-65
2021/04/24 02:20:15;;;;;;;10.23;4.47;;;;;;;4.18;66.45;101906.34;5055849;28;20205;-65
2021/04/24 02:22:42;;;;;;;9.57;5.03;;;;;;;4.17;67.28;101901.97;5111752;23;20231;-66
2021/04/24 02:25:10;;;;;;;7.83;3.87;;;;;;;4.15;66.64;101909.91;5109178;28;20234;-67
2021/04/24 02:27:35;;;;;;;10.97;4.90;;;;;;;4.15;66.61;101914.31;5109991;28;20204;-67
2021/04/24 02:30:03;;;;;;;8.67;4.57;;;;;;;4.14;66.68;101907.28;5113651;27;20238;-67
2021/04/24 02:32:32;;;;;;;10.10;5.13;;;;;;;4.13;67.12;101916.97;5097445;28;20227;-66
2021/04/24 02:35:00;;;;;;;11.90;5.40;;;;;;;4.10;67.72;101911.78;5093668;28;20261;-67
2021/04/24 02:37:26;;;;;;;11.83;4.60;;;;;;;4.08;67.29;101905.66;5091860;28;20250;-67
2021/04/24 02:39:54;;;;;;;7.27;4.70;;;;;;;4.08;67.92;101916.19;5087560;28;20196;-67
2021/04/24 02:42:22;;;;;;;10.97;4.63;;;;;;;4.05;67.31;101908.34;5091996;28;20231;-67
2021/04/24 02:44:49;;;;;;;10.43;5.07;;;;;;;4.04;68.05;101905.72;5088815;28;20204;-66
2021/04/24 02:47:16;;;;;;;11.13;5.43;;;;;;;4.02;67.47;101902.22;5093349;28;20220;-68
2021/04/24 02:49:43;;;;;;;11.10;5.20;;;;;;;4.00;68.01;101907.53;5090773;28;20203;-67
2021/04/24 02:52:09;;;;;;;11.23;5.10;;;;;;;4.00;67.54;101907.53;5086003;28;20227;-67
2021/04/24 02:54:36;;;;;;;12.97;5.30;;;;;;;3.99;68.13;101918.97;5093233;28;20212;-68
2021/04/24 02:57:03;;;;;;;9.70;4.77;;;;;;;3.98;68.76;101911.06;5082188;28;20207;-68
2021/04/24 02:59:30;;;;;;;11.13;5.43;;;;;;;3.97;68.22;101915.47;5091849;28;20208;-67
2021/04/24 03:01:56;;;;;;;9.37;5.30;;;;;;;3.95;68.59;101904.09;5090475;28;20658;-67
2021/04/24 03:04:22;;;;;;;13.07;4.70;;;;;;;3.94;68.55;101899.72;5087243;28;20197;-67
2021/04/24 03:06:50;;;;;;;9.97;5.63;;;;;;;3.94;68.50;101912.03;5079296;28;20225;-67
2021/04/24 03:09:16;;;;;;;9.23;5.37;;;;;;;3.93;69.14;101905.03;5080517;28;20211;-68
2021/04/24 03:11:43;;;;;;;13.93;5.57;;;;;;;3.91;69.09;101907.69;5091971;28;20224;-68
2021/04/24 03:14:09;;;;;;;12.37;5.90;;;;;;;3.90;69.00;101910.34;5082804;28;20682;-67
2021/04/24 03:16:36;;;;;;;9.73;5.30;;;;;;;3.90;68.70;101908.59;5087218;28;20216;-68
2021/04/24 03:19:04;;;;;;;15.27;5.23;;;;;;;3.89;69.39;101909.47;5093093;28;20246;-67
2021/04/24 03:21:30;;;;;;;10.03;6.07;;;;;;;3.89;68.67;101911.25;5081693;28;20205;-69
2021/04/24 03:23:57;;;;;;;11.47;6.03;;;;;;;3.86;69.56;101911.28;5079521;28;20212;-69
2021/04/24 03:26:24;;;;;;;13.03;6.10;;;;;;;3.86;69.40;101914.78;5075180;28;20228;-68
2021/04/24 03:28:51;;;;;;;15.13;6.10;;;;;;;3.85;69.02;101923.59;5077987;28;20254;-67
2021/04/24 03:31:17;;;;;;;12.53;6.07;;;;;;;3.85;69.06;101920.94;5087345;28;20196;-69
2021/04/24 03:33:43;;;;;;;10.47;5.80;;;;;;;3.83;69.29;101918.34;5093016;28;20231;-69
2021/04/24 03:36:11;;;;;;;12.10;5.83;;;;;;;3.84;69.41;101911.31;5092396;28;20272;-68
2021/04/24 03:38:37;;;;;;;14.87;5.93;;;;;;;3.84;69.65;101912.19;5093333;28;20278;-67
2021/04/24 03:41:05;;;;;;;12.30;6.33;;;;;;;3.85;69.68;101910.41;5092220;28;20253;-68
2021/04/24 03:43:31;;;;;;;10.10;5.63;;;;;;;3.86;70.28;101908.66;5092129;28;20220;-67
2021/04/24 03:45:57;;;;;;;12.37;5.50;;;;;;;3.87;70.47;101919.16;5092471;28;20247;-69
2021/04/24 03:48:23;;;;;;;12.97;6.10;;;;;;;3.89;69.98;101917.38;5093051;28;20204;-67
2021/04/24 03:50:49;;;;;;;12.87;6.20;;;;;;;3.90;70.95;101919.13;5091809;28;20700;-67
2021/04/24 03:53:15;;;;;;;14.50;6.47;;;;;;;3.92;70.40;101922.63;5089849;28;20239;-66
2021/04/24 03:55:42;;;;;;;12.07;5.47;;;;;;;3.93;71.12;101915.56;5089476;28;20200;-69
2021/04/24 03:58:09;;;;;;;14.13;6.00;;;;;;;3.94;70.95;101919.97;5084198;28;20205;-67
2021/04/24 04:00:35;;;;;;;14.20;6.40;;;;;;;3.94;70.90;101920.78;5088368;28;20200;-67
2021/04/24 04:03:02;;;;;;;12.93;5.60;;;;;;;3.95;71.12;101924.31;5089087;28;20220;-68
2021/04/24 04:05:31;;;;;;;12.47;6.33;;;;;;;3.97;70.89;101922.50;5096233;28;20660;-67
2021/04/24 04:07:58;;;;;;;11.90;6.10;;;;;;;3.97;71.18;101926.03;5085686;28;20204;-65
2021/04/24 04:10:24;;;;;;;12.80;6.23;;;;;;;3.99;71.01;101926.00;5091469;28;20543;-66
2021/04/24 04:12:51;;;;;;;13.43;6.60;;;;;;;4.00;70.90;101933.88;5084420;28;20219;-67
2021/04/24 04:15:19;;;;;;;13.47;6.53;;;;;;;4.03;71.57;101925.94;5092365;28;20207;-67
2021/04/24 04:17:52;;;;;;;12.70;6.43;;;;;;;4.05;71.33;101934.69;5092615;28;20506;-67
2021/04/24 04:20:19;;;;;;;11.93;6.10;;;;;;;4.05;71.33;101929.41;5091905;28;20583;-68
2021/04/24 04:22:45;;;;;;;12.97;5.90;;;;;;;4.08;71.27;101925.88;5079056;28;20236;-69
2021/04/24 04:25:12;;;;;;;14.30;6.43;;;;;;;4.10;71.34;101924.09;5075781;28;20685;-68
2021/04/24 04:27:38;;;;;;;11.83;6.57;;;;;;;4.10;71.61;101927.59;5081405;28;20204;-68
2021/04/24 04:30:06;;;;;;;14.57;6.30;;;;;;;4.12;72.02;101930.19;5091807;28;20671;-66
2021/04/24 04:32:33;;;;;;;11.50;6.17;;;;;;;4.14;71.75;101931.91;5087388;28;20223;-68
2021/04/24 04:34:59;;;;;;;14.37;6.40;;;;;;;4.15;71.77;101932.75;5091761;28;20227;-68
2021/04/24 04:37:25;;;;;;;11.63;6.50;;;;;;;4.16;72.27;101930.09;5087734;28;20259;-67
2021/04/24 04:39:51;;;;;;;12.70;6.27;;;;;;;4.19;72.13;101930.06;5091640;28;20656;-67
2021/04/24 04:42:17;;;;;;;12.60;6.67;;;;;;;4.22;72.10;101937.06;5076396;28;20227;-68
2021/04/24 04:44:43;;;;;;;13.27;6.57;;;;;;;4.25;72.39;101941.41;5091706;28;20211;-68
2021/04/24 04:47:09;;;;;;;13.80;6.47;;;;;;;4.27;72.63;101939.63;5090378;28;20606;-67
2021/04/24 04:49:36;;;;;;;12.87;6.40;;;;;;;4.29;72.30;101937.84;5092335;28;20204;-67
2021/04/24 04:52:03;;;;;;;13.23;6.40;;;;;;;4.32;72.60;101932.47;5090174;28;20227;-68
2021/04/24 04:54:29;;;;;;;14.70;7.07;;;;;;;4.34;72.70;101944.75;5089258;28;20220;-69
2021/04/24 04:56:55;;;;;;;18.67;7.03;;;;;;;4.37;73.10;101935.91;5084750;28;20204;-68
2021/04/24 04:59:21;;;;;;;11.97;6.97;;;;;;;4.41;72.81;101935.84;5084953;28;20688;-67
2021/04/24 05:01:47;;;;;;;13.00;6.47;;;;;;;4.44;72.97;101924.38;5084247;28;20239;-67
2021/04/24 05:04:13;;;;;;;16.40;7.33;;;;;;;4.45;73.16;101924.34;5091497;28;20211;-67
2021/04/24 05:06:40;;;;;;;13.23;6.40;;;;;;;4.48;72.69;101915.47;5089973;28;20220;-67
2021/04/24 05:09:06;;;;;;;11.63;6.63;;;;;;;4.52;73.41;101915.41;5091005;28;20709;-67
2021/04/24 05:11:32;;;;;;;14.67;6.60;;;;;;;4.55;73.24;101919.75;5082417;28;20209;-68
2021/04/24 05:13:58;;;;;;;12.37;7.83;;;;;;;4.58;73.60;101922.34;5090986;28;20631;-68
2021/04/24 05:16:24;;;;;;;15.97;7.97;;;;;;;4.62;73.04;101924.03;5085527;28;20231;-66
2021/04/24 05:18:50;;;;;;;14.53;7.10;;;;;;;4.65;73.17;101916.06;5089819;28;20700;-68
2021/04/24 05:21:16;;;;;;;10.80;6.63;;;;;;;4.69;73.11;101923.00;5086748;28;20343;-68
2021/04/24 05:23:43;;;;;;;13.93;7.13;;;;;;;4.72;73.48;101916.81;5083390;28;20204;-67
2021/04/24 05:26:09;;;;;;;14.07;7.97;;;;;;;4.76;73.28;101929.94;5090775;28;20228;-68
2021/04/24 05:28:35;;;;;;;17.87;7.77;;;;;;;4.82;73.77;101924.53;5089785;28;20411;-68
2021/04/24 05:31:01;;;;;;;16.60;6.60;;;;;;;4.86;73.21;101923.56;5086238;28;20690;-68
2021/04/24 05:33:27;;;;;;;9.93;5.87;;;;;;;4.91;73.15;101927.88;5090386;28;20306;-67
2021/04/24 05:35:53;;;;;;;12.97;6.67;;;;;;;4.94;73.44;101923.41;5084527;28;20677;-67
2021/04/24 05:38:20;;;;;;;12.67;6.60;;;;;;;5.00;73.63;101930.34;5086902;28;20204;-67
2021/04/24 05:40:46;;;;;;;11.23;6.23;;;;;;;5.07;73.77;101924.03;5092868;28;20208;-67
2021/04/24 05:43:12;;;;;;;11.33;7.33;;;;;;;5.14;73.60;101928.31;5081905;28;20231;-68
2021/04/24 05:45:38;;;;;;;15.57;7.13;;;;;;;5.20;73.82;101938.72;5088971;28;20206;-68
2021/04/24 05:48:05;;;;;;;11.43;6.33;;;;;;;5.29;74.10;101935.03;5090345;28;20208;-67
2021/04/24 05:50:31;;;;;;;12.40;7.57;;;;;;;5.36;74.06;101932.25;5085376;28;20208;-66
2021/04/24 05:52:57;;;;;;;11.73;6.90;;;;;;;5.44;74.17;101929.41;5089802;28;20277;-68
2021/04/24 05:55:23;;;;;;;14.30;6.67;;;;;;;5.51;74.11;101934.53;5090714;28;20614;-68
2021/04/24 05:57:50;;;;;;;12.43;7.33;;;;;;;5.58;74.13;101938.78;5085183;28;20238;-69
2021/04/24 06:00:19;;;;;;;11.73;6.93;;;;;;;5.65;74.00;101934.22;5090025;28;20211;-68
2021/04/24 06:02:45;;;;;;;12.57;6.60;;;;;;;5.72;73.81;101941.13;5086401;28;20232;-67
2021/04/24 06:05:12;;;;;;;13.00;6.93;;;;;;;5.78;73.73;101929.53;5097743;28;20578;-68
2021/04/24 06:07:39;;;;;;;12.77;6.83;;;;;;;5.85;73.88;101925.84;5093973;28;20224;-67
2021/04/24 06:10:07;;;;;;;10.23;6.40;;;;;;;5.96;73.81;101929.13;5091854;28;20200;-68
2021/04/24 06:12:33;;;;;;;11.80;6.43;;;;;;;6.07;73.68;101924.47;5084185;28;20233;-68
2021/04/24 06:15:00;;;;;;;11.30;6.47;;;;;;;6.16;73.46;101932.16;5090425;28;20204;-67
2021/04/24 06:17:26;;;;;;;10.93;5.90;;;;;;;6.25;73.26;101931.94;5098210;28;20258;-68
2021/04/24 06:19:52;;;;;;;12.10;6.47;;;;;;;6.37;73.39;101930.75;5084189;28;20196;-66
2021/04/24 06:22:19;;;;;;;10.33;5.53;;;;;;;6.49;73.19;101932.22;5087572;28;20234;-66
2021/04/24 06:24:45;;;;;;;11.67;5.50;;;;;;;6.60;72.73;101932.81;5094543;28;20568;-68
2021/04/24 06:27:11;;;;;;;11.17;5.87;;;;;;;6.71;72.39;101933.38;5090997;28;20307;-66
2021/04/24 06:29:37;;;;;;;10.10;5.73;;;;;;;6.79;71.93;101927.91;5090349;28;20200;-69
2021/04/24 06:32:05;;;;;;;10.03;5.57;;;;;;;6.88;71.71;101931.16;5092552;28;20358;-68
2021/04/24 06:34:31;;;;;;;10.27;4.80;;;;;;;6.99;71.27;101920.22;5087431;28;20200;-68
2021/04/24 06:36:57;;;;;;;10.43;6.00;;;;;;;7.11;71.71;101917.25;5095463;28;20200;-66
2021/04/24 06:39:23;;;;;;;9.20;5.10;;;;;;;7.30;71.38;101922.88;5090917;28;20207;-67
2021/04/24 06:41:49;;;;;;;10.33;5.07;;;;;;;7.48;70.47;101925.00;5091557;28;20220;-66
2021/04/24 06:44:16;;;;;;;28.33;8.30;;;;;;;7.62;69.65;101927.22;5082366;28;20205;-68
2021/04/24 06:46:42;;;;;;;8.33;5.57;;;;;;;7.73;69.37;101921.56;5083053;28;20579;-69
2021/04/24 06:49:10;;;;;;;10.70;5.20;;;;;;;7.82;69.23;101914.22;5092031;28;20245;-68
2021/04/24 06:51:37;;;;;;;8.43;4.93;;;;;;;7.93;68.10;101920.03;5089739;28;20228;-71
2021/04/24 06:54:03;;;;;;;7.70;4.60;;;;;;;8.04;67.90;101909.09;5081051;28;20205;-68
2021/04/24 06:56:29;;;;;;;13.40;4.97;;;;;;;8.19;67.94;101916.53;5077235;28;20204;-68
2021/04/24 06:58:55;;;;;;;8.07;5.77;;;;;;;8.36;67.53;101916.00;5083866;28;20291;-67
2021/04/24 07:01:21;;;;;;;9.63;5.80;;;;;;;8.53;66.87;101921.59;5085542;28;20212;-66
2021/04/24 07:03:47;;;;;;;7.77;4.60;;;;;;;8.73;66.35;101915.59;5078194;28;20302;-68
2021/04/24 07:06:14;;;;;;;9.27;4.70;;;;;;;8.89;65.96;101924.75;5081960;28;20277;-68
2021/04/24 07:08:40;;;;;;;8.23;4.13;;;;;;;8.95;64.55;101931.63;5082298;28;20215;-67
2021/04/24 07:11:07;;;;;;;8.73;4.30;;;;;;;9.00;64.15;101924.34;5076342;28;20213;-70
2021/04/24 07:13:33;;;;;;;9.87;4.10;;;;;;;9.07;63.03;101920.53;5080019;28;20228;-68
2021/04/24 07:16:02;;;;;;;6.23;4.33;;;;;;;9.16;63.40;101925.50;5079570;28;20205;-68
2021/04/24 07:18:29;;;;;;;6.40;4.20;;;;;;;9.26;62.27;101916.28;5076898;28;20224;-68
2021/04/24 07:20:55;;;;;;;8.07;3.93;;;;;;;9.34;61.56;101921.28;5078872;28;20212;-68
2021/04/24 07:23:22;;;;;;;5.90;3.77;;;;;;;9.38;61.30;101915.81;5078026;28;20240;-70
2021/04/24 07:25:48;;;;;;;6.07;3.30;;;;;;;9.45;61.22;101913.78;5077819;28;20216;-66
2021/04/24 07:28:16;;;;;;;6.07;3.60;;;;;;;9.55;60.10;101915.16;5077379;28;20204;-66
2021/04/24 07:30:42;;;;;;;6.30;3.97;;;;;;;9.65;60.40;101924.53;5078101;28;20209;-67
2021/04/24 07:33:08;;;;;;;5.63;3.80;;;;;;;9.68;59.11;101913.72;5074626;28;20232;-66
2021/04/24 07:35:34;;;;;;;7.47;3.20;;;;;;;9.67;58.09;101911.16;5074805;28;20653;-67
2021/04/24 07:38:00;;;;;;;4.67;3.30;;;;;;;9.63;58.29;101907.75;5075728;28;20239;-66
2021/04/24 07:40:27;;;;;;;5.40;3.40;;;;;;;9.66;58.46;101920.06;5074836;28;20213;-68
2021/04/24 07:42:53;;;;;;;6.00;3.40;;;;;;;9.64;57.55;101905.97;5083257;28;20258;-68
2021/04/24 07:45:19;;;;;;;6.43;3.30;;;;;;;9.54;57.56;101913.41;5076342;28;20231;-68
2021/04/24 07:47:45;;;;;;;7.37;3.90;;;;;;;9.45;57.81;101911.13;5074533;28;20228;-68
2021/04/24 07:50:14;;;;;;;5.43;4.00;;;;;;;9.38;57.59;101912.28;5073879;28;20650;-70
2021/04/24 07:52:40;;;;;;;5.07;3.60;;;;;;;9.30;58.01;101906.41;5078743;28;20220;-65
2021/04/24 07:55:06;;;;;;;4.97;3.17;;;;;;;9.26;58.41;101915.41;5075175;28;20209;-65
2021/04/24 07:57:33;;;;;;;7.73;3.87;;;;;;;9.24;58.27;101912.81;5079452;28;20201;-68
2021/04/24 07:59:59;;;;;;;5.63;3.47;;;;;;;9.21;58.24;101914.72;5076743;28;20700;-66
2021/04/24 08:02:25;;;;;;;5.93;3.70;;;;;;;9.19;58.77;101912.09;5077712;28;20217;-69
2021/04/24 08:04:51;;;;;;;5.37;3.67;;;;;;;9.18;58.45;101914.81;5077754;28;20204;-67
2021/04/24 08:07:17;;;;;;;9.07;3.93;;;;;;;9.15;58.08;101910.47;5083919;28;20223;-67
2021/04/24 08:09:45;;;;;;;8.83;3.67;;;;;;;9.16;58.45;101914.00;5089394;28;20677;-67
2021/04/24 08:12:11;;;;;;;6.73;3.43;;;;;;;9.17;58.55;101910.41;5086308;28;20709;-68
2021/04/24 08:14:38;;;;;;;6.43;3.30;;;;;;;9.18;58.58;101921.00;5082691;28;20217;-70
2021/04/24 08:17:03;;;;;;;7.27;3.30;;;;;;;9.19;58.20;101919.22;5079842;28;20200;-68
2021/04/24 08:19:29;;;;;;;4.90;2.80;;;;;;;9.27;57.47;101917.16;5083603;28;20204;-68
2021/04/24 08:21:56;;;;;;;7.60;2.73;;;;;;;9.35;57.40;101912.38;5091795;22;20262;-88
2021/04/24 08:24:22;;;;;;;4.80;2.57;;;;;;;9.53;57.87;101916.13;5073139;28;20215;-88
2021/04/24 08:26:49;;;;;;;8.33;2.93;;;;;;;9.76;56.75;101908.13;5074535;28;20278;-89
2021/04/24 08:29:15;;;;;;;5.07;2.80;;;;;;;9.90;56.16;101905.75;5086344;28;20294;-89
2021/04/24 08:31:43;;;;;;;4.43;2.13;;;;;;;9.95;55.11;101908.25;5109535;28;20232;-86
2021/04/24 08:34:10;;;;;;;5.03;2.77;;;;;;;9.94;54.37;101906.50;5110640;28;20192;-88
2021/04/24 08:36:37;;;;;;;3.63;2.40;;;;;;;9.91;54.17;101910.16;5087983;28;20200;-89
2021/04/24 08:39:04;;;;;;;5.73;2.67;;;;;;;9.89;53.92;101919.13;5086694;28;20311;-91
2021/04/24 08:41:32;;;;;;;6.80;3.27;;;;;;;9.89;53.67;101916.47;5085831;28;20208;-89
2021/04/24 08:43:58;;;;;;;3.77;2.33;;;;;;;9.89;53.96;101916.47;5085973;28;20548;-90
2021/04/24 08:46:26;;;;;;;5.37;3.10;;;;;;;9.88;53.64;101914.72;5077204;28;20228;-90
2021/04/24 08:48:54;;;;;;;8.63;2.90;;;;;;;9.91;53.49;101922.59;5103498;28;20224;-88
2021/04/24 08:51:22;;;;;;;5.20;3.17;;;;;;;9.94;53.51;101917.16;5100784;28;20261;-88
2021/04/24 08:53:49;;;;;;;7.47;3.27;;;;;;;9.98;53.78;101910.78;5103482;28;20269;-89
2021/04/24 08:56:17;;;;;;;5.10;3.27;;;;;;;10.02;53.68;101910.59;5104243;28;20216;-89
2021/04/24 08:58:44;;;;;;;8.43;3.33;;;;;;;10.08;53.38;101904.16;5107006;28;20383;-89
2021/04/24 09:01:10;;;;;;;6.87;3.23;;;;;;;10.07;53.66;101911.25;5089176;28;20244;-89
2021/04/24 09:03:36;;;;;;;8.67;4.10;;;;;;;10.06;53.01;101911.31;5093253;28;20208;-89
2021/04/24 09:06:03;;;;;;;9.97;4.70;;;;;;;10.04;53.33;101913.19;5083396;28;20228;-90
2021/04/24 09:08:30;;;;;;;7.50;4.13;;;;;;;10.02;54.02;101910.59;5083181;28;20217;-90
2021/04/24 09:10:58;;;;;;;8.90;4.80;;;;;;;10.01;54.41;101916.84;5080031;28;20253;-90
2021/04/24 09:13:25;;;;;;;9.10;4.30;;;;;;;10.02;54.00;101912.41;5082451;28;20283;-89
2021/04/24 09:15:53;;;;;;;8.00;4.67;;;;;;;10.00;54.60;101914.25;5088631;28;20231;-90
2021/04/24 09:18:21;;;;;;;6.67;4.07;;;;;;;10.03;54.55;101914.13;5082103;28;20231;-90
2021/04/24 09:20:49;;;;;;;8.43;4.23;;;;;;;10.07;54.08;101913.06;5082723;28;20253;-90
2021/04/24 09:23:18;;;;;;;8.73;4.70;;;;;;;10.12;54.45;101911.09;5087077;28;20236;-93
2021/04/24 09:25:49;;;;;;;8.33;4.03;;;;;;;10.18;53.90;101909.97;5088205;28;20544;-93
2021/04/24 09:28:26;;;;;;;7.77;4.13;;;;;;;10.24;53.84;101912.38;5099373;28;20226;-92
2021/04/24 09:30:53;;;;;;;6.63;3.77;;;;;;;10.28;53.04;101912.19;5097534;28;20200;-91
2021/04/24 09:33:19;;;;;;;5.87;4.83;;;;;;;10.29;52.71;101908.59;5084314;28;20296;-90
2021/04/24 09:35:52;;;;;;;7.57;4.87;;;;;;;10.29;53.18;101915.72;5084388;28;20227;-91
2021/04/24 09:38:22;;;;;;;9.30;5.40;;;;;;;10.24;53.12;101917.72;5079295;28;20229;-91
2021/04/24 09:41:27;;;;;;;10.40;5.00;;;;;;;10.19;53.68;101920.59;5091885;28;20313;-93
2021/04/24 09:43:57;;;;;;;12.90;4.50;;;;;;;10.21;53.86;101910.72;5019772;28;20286;-92
2021/04/24 09:46:26;;;;;;;7.07;4.80;;;;;;;10.17;54.14;101914.44;5009197;28;20218;-89
2021/04/24 09:49:07;;;;;;;7.90;5.33;;;;;;;10.17;54.11;101917.09;5049672;28;20651;-91
2021/04/24 09:51:41;;;;;;;7.57;5.10;;;;;;;10.21;53.84;101912.53;5083971;28;20682;-90
2021/04/24 09:54:30;;;;;;;7.77;4.27;;;;;;;10.24;54.02;101915.91;5086632;28;20203;-92
2021/04/24 09:57:35;;;;;;;13.87;8.83;;;;;;;10.18;54.11;101902.84;5086104;28;20215;-92
2021/04/24 10:03:44;;;;;;;6.77;5.30;;;;;;;10.38;53.71;101902.03;5085887;28;20242;-90
2021/04/24 10:09:30;;;;;;;8.30;5.07;;;;;;;10.60;54.08;101904.63;5259232;22;20231;-63
2021/04/24 10:12:10;;;;;;;8.63;5.40;;;;;;;10.67;53.43;101908.78;5069675;28;20205;-66
2021/04/24 10:14:41;;;;;;;9.10;5.63;;;;;;;10.72;53.51;101909.44;5064836;28;20232;-66
2021/04/24 10:17:08;;;;;;;7.50;4.53;;;;;;;10.75;52.59;101915.47;5062694;28;20204;-66
2021/04/24 10:19:35;;;;;;;10.83;6.63;;;;;;;10.77;52.32;101907.41;5068415;28;20208;-66
2021/04/24 10:22:03;;;;;;;9.53;5.27;;;;;;;10.78;51.65;101907.34;5087188;22;20253;-66
2021/04/24 10:24:30;;;;;;;7.53;4.50;;;;;;;10.78;51.02;101904.69;5066919;28;20205;-66
2021/04/24 10:26:57;;;;;;;6.63;4.00;;;;;;;10.74;50.23;101908.44;5068051;28;20228;-67
2021/04/24 10:29:24;;;;;;;9.40;5.27;;;;;;;10.74;50.22;101902.25;5068887;28;20204;-67
2021/04/24 10:31:51;;;;;;;7.67;4.67;;;;;;;10.79;49.66;101901.09;5077419;28;20224;-65
2021/04/24 10:34:17;;;;;;;7.03;3.73;;;;;;;10.89;49.56;101895.38;5085151;28;20662;-66
2021/04/24 10:36:44;;;;;;;8.23;5.30;;;;;;;11.00;49.35;101898.41;5087214;28;20208;-66
2021/04/24 10:39:12;;;;;;;5.60;4.23;;;;;;;11.12;48.50;101888.03;5087482;28;20200;-67
2021/04/24 10:41:41;;;;;;;6.20;3.43;;;;;;;11.18;47.48;101886.91;5088380;28;20318;-67
2021/04/24 10:44:10;;;;;;;8.33;3.90;;;;;;;11.20;47.03;101884.16;5081189;28;20243;-67
2021/04/24 10:46:38;;;;;;;6.17;4.13;;;;;;;11.20;47.11;101884.16;5079152;28;20239;-67
2021/04/24 10:49:26;;;;;;;8.57;4.40;;;;;;;11.23;47.47;101884.91;5086669;28;20209;-67
2021/04/24 10:52:07;;;;;;;6.80;4.30;;;;;;;11.24;47.08;101875.97;5089677;28;20220;-66
2021/04/24 10:54:36;;;;;;;10.10;4.30;;;;;;;11.33;47.47;101870.19;5089690;28;20273;-66
2021/04/24 10:57:43;;;;;;;7.87;4.17;;;;;;;11.50;47.84;101866.72;5092790;28;20196;-66
2021/04/24 11:00:11;;;;;;;4.90;3.17;;;;;;;11.65;46.69;101859.75;5091556;28;20200;-67
2021/04/24 11:02:42;;;;;;;7.07;4.27;;;;;;;11.69;45.85;101867.56;5092625;28;20224;-67
2021/04/24 11:05:17;;;;;;;7.43;4.00;;;;;;;11.77;45.67;101860.09;5092288;28;20204;-67
2021/04/24 11:07:44;;;;;;;8.13;4.30;;;;;;;11.86;45.49;101869.44;5091687;28;20231;-67
2021/04/24 11:10:29;;;;;;;5.93;4.70;;;;;;;11.96;45.38;101854.69;5091705;28;20720;-67
2021/04/24 11:13:01;;;;;;;7.93;4.40;;;;;;;11.98;44.88;101867.97;5091830;28;20215;-67
2021/04/24 11:15:27;;;;;;;9.17;4.57;;;;;;;11.97;44.97;101860.91;5089469;28;20705;-67
2021/04/24 11:17:55;;;;;;;10.47;4.40;;;;;;;11.98;44.96;101851.97;5089694;28;20611;-67
2021/04/24 11:20:51;;;;;;;6.33;4.13;;;;;;;12.01;45.10;101857.97;5083896;28;20208;-66
2021/04/24 11:24:00;;;;;;;5.93;4.10;;;;;;;12.03;45.05;101858.78;5090492;28;20196;-67
2021/04/24 11:26:47;;;;;;;6.50;4.03;;;;;;;12.15;45.14;101851.97;5089036;28;20220;-67
2021/04/24 11:29:16;;;;;;;11.93;5.23;;;;;;;12.24;44.76;101850.63;5090879;28;20787;-67
2021/04/24 11:32:02;;;;;;;6.03;3.90;;;;;;;12.34;44.65;101850.09;5090824;28;20236;-67
2021/04/24 11:34:44;;;;;;;7.77;3.87;;;;;;;12.40;43.45;101844.41;5090246;28;20693;-67
2021/04/24 11:37:33;;;;;;;7.90;3.80;;;;;;;12.42;42.03;101853.22;5090853;28;20280;-68
2021/04/24 11:40:18;;;;;;;5.93;3.87;;;;;;;12.39;41.87;101844.47;5091967;28;20212;-67